Time;durP1;ratioP1;P1;durP2;ratioP2;P2;SDS_P1;SDS_P2;PMS_P1;PMS_P2;Temp;Humidity;BMP_temperature;BMP_pressure;BME280_temperature;BME280_humidity;BME280_pressure;Samples;Min_cycle;Max_cycle;Signal;HPM_P1;HPM_P2
2021/04/14 00:01:16;;;;;;;0.30;0.30;;;;;;;18.76;47.97;94091.97;4997126;28;100336;-60
2021/04/14 00:03:43;;;;;;;0.22;0.22;;;;;;;18.83;48.17;94091.13;4996906;28;99443;-60
2021/04/14 00:06:09;;;;;;;0.30;0.30;;;;;;;18.86;47.81;94095.81;4997251;28;96800;-60
2021/04/14 00:08:35;;;;;;;0.25;0.25;;;;;;;18.87;47.86;94091.88;4997605;28;96844;-60
2021/04/14 00:11:01;;;;;;;0.20;0.20;;;;;;;18.83;47.96;94088.38;4997054;28;98878;-60
2021/04/14 00:13:30;;;;;;;0.30;0.30;;;;;;;18.86;47.98;94092.28;4997323;28;99241;-60
2021/04/14 00:15:58;;;;;;;0.20;0.20;;;;;;;18.83;47.96;94102.06;4997645;28;96605;-60
2021/04/14 00:18:23;;;;;;;0.80;0.80;;;;;;;18.84;47.80;94092.69;4996788;28;96924;-60
2021/04/14 00:20:49;;;;;;;0.30;0.30;;;;;;;18.83;47.77;94085.66;4995238;28;98995;-60
2021/04/14 00:23:15;;;;;;;0.25;0.25;;;;;;;18.83;47.77;94082.16;4996907;28;99013;-60
2021/04/14 00:25:43;;;;;;;0.40;0.40;;;;;;;18.87;47.58;94091.88;4997729;28;96971;-60
2021/04/14 00:28:13;;;;;;;0.90;0.90;;;;;;;18.87;47.58;94086.41;4997464;28;96969;-60
2021/04/14 00:30:38;;;;;;;0.57;0.57;;;;;;;18.85;47.45;94082.50;4997098;28;98172;-60
2021/04/14 00:33:03;;;;;;;0.40;0.40;;;;;;;18.86;47.67;94087.59;4996904;28;98959;-60
2021/04/14 00:35:29;;;;;;;0.40;0.40;;;;;;;18.90;47.48;94095.75;4997101;28;96625;-60
2021/04/14 00:37:55;;;;;;;0.40;0.40;;;;;;;18.85;47.51;94088.78;4997292;28;96908;-60
2021/04/14 00:40:27;;;;;;;0.30;0.30;;;;;;;18.89;47.30;94095.00;4996753;28;99498;-59
2021/04/14 00:42:53;;;;;;;0.38;0.38;;;;;;;18.86;47.44;94105.94;4995556;28;99297;-60
2021/04/14 00:45:19;;;;;;;0.30;0.30;;;;;;;18.87;47.28;94105.56;4997066;28;96770;-60
2021/04/14 00:47:44;;;;;;;0.30;0.30;;;;;;;18.87;47.27;94108.31;4997072;28;96869;-60
2021/04/14 00:50:11;;;;;;;0.28;0.28;;;;;;;18.92;47.17;94104.34;4996769;28;99590;-60
2021/04/14 00:52:37;;;;;;;0.20;0.20;;;;;;;18.89;47.38;94116.09;4996425;28;99711;-60
2021/04/14 00:55:03;;;;;;;0.30;0.30;;;;;;;18.91;47.31;94103.59;4996618;28;96794;-60
2021/04/14 00:57:29;;;;;;;0.30;0.30;;;;;;;18.88;47.24;94115.34;4997133;28;96758;-60
2021/04/14 00:59:54;;;;;;;0.30;0.30;;;;;;;18.90;47.29;94115.72;4996467;28;99598;-60
2021/04/14 01:02:20;;;;;;;0.22;0.22;;;;;;;18.88;47.15;94114.53;4995693;28;99560;-60
2021/04/14 01:04:45;;;;;;;0.20;0.20;;;;;;;18.90;47.08;94128.59;4996481;28;96793;-60
2021/04/14 01:07:11;;;;;;;0.20;0.20;;;;;;;18.94;47.00;94132.88;4995667;28;96882;-61
2021/04/14 01:09:36;;;;;;;0.25;0.25;;;;;;;18.88;47.15;94129.00;4996469;28;99696;-60
2021/04/14 01:12:02;;;;;;;0.30;0.30;;;;;;;18.91;46.90;94130.94;4996310;28;99446;-60
2021/04/14 01:14:27;;;;;;;0.28;0.28;;;;;;;18.95;46.87;94131.72;4994848;28;96803;-60
2021/04/14 01:16:53;;;;;;;0.20;0.20;;;;;;;18.93;46.84;94155.97;4996770;28;96902;-60
2021/04/14 01:19:18;;;;;;;0.20;0.20;;;;;;;18.90;46.94;94148.53;4995202;28;99633;-60
2021/04/14 01:21:44;;;;;;;0.20;0.20;;;;;;;18.92;46.77;94137.97;4995793;28;99607;-60
2021/04/14 01:24:14;;;;;;;0.20;0.20;;;;;;;18.93;46.98;94123.13;4996223;28;96841;-61
2021/04/14 01:26:39;;;;;;;0.25;0.25;;;;;;;18.94;47.05;94127.41;4996223;28;96986;-60
2021/04/14 01:29:07;;;;;;;0.28;0.28;;;;;;;18.92;46.98;94127.03;4995277;28;99927;-62
2021/04/14 01:31:33;;;;;;;0.20;0.20;;;;;;;18.96;46.67;94137.97;4995514;28;99307;-62
2021/04/14 01:34:10;;;;;;;0.20;0.20;;;;;;;18.93;46.63;94134.06;4994975;28;96811;-61
2021/04/14 01:36:36;;;;;;;0.20;0.20;;;;;;;18.96;46.82;94138.78;4996046;28;96927;-62
2021/04/14 01:39:02;;;;;;;0.20;0.20;;;;;;;18.94;46.59;94134.84;4995709;28;99435;-61
2021/04/14 01:41:28;;;;;;;0.28;0.28;;;;;;;18.95;46.72;94141.88;4995649;28;99190;-61
2021/04/14 01:43:53;;;;;;;0.20;0.20;;;;;;;18.99;46.63;94141.88;4996070;28;96575;-61
2021/04/14 01:46:19;;;;;;;0.20;0.20;;;;;;;18.99;46.59;94141.88;4995813;28;96970;-61
2021/04/14 01:48:44;;;;;;;0.20;0.20;;;;;;;19.00;46.46;94137.97;4995804;28;98061;-60
2021/04/14 01:51:10;;;;;;;0.20;0.20;;;;;;;19.00;46.40;94135.22;4995547;28;99262;-62
2021/04/14 01:53:35;;;;;;;0.20;0.20;;;;;;;18.99;46.35;94136.41;4996087;28;96597;-61
2021/04/14 01:56:01;;;;;;;0.10;0.10;;;;;;;18.99;46.43;94130.94;4995267;28;96899;-59
2021/04/14 01:58:29;;;;;;;0.38;0.38;;;;;;;18.91;46.55;94103.59;4995637;28;99077;-61
2021/04/14 02:00:58;;;;;;;0.20;0.20;;;;;;;18.91;46.58;94098.13;4995363;28;99358;-60
2021/04/14 02:03:25;;;;;;;0.20;0.20;;;;;;;18.90;46.39;94091.09;4995068;28;96811;-62
2021/04/14 02:05:51;;;;;;;0.20;0.20;;;;;;;18.94;46.46;94105.53;4995298;28;96995;-61
2021/04/14 02:08:17;;;;;;;0.20;0.20;;;;;;;18.88;46.50;94107.13;4994384;28;98506;-61
2021/04/14 02:10:42;;;;;;;0.25;0.20;;;;;;;18.90;46.50;94099.28;4993910;28;99503;-61
2021/04/14 02:13:13;;;;;;;0.20;0.20;;;;;;;18.89;46.46;94094.19;4994252;28;96780;-61
2021/04/14 02:15:38;;;;;;;0.20;0.20;;;;;;;18.86;46.50;94073.91;4994541;28;96933;-61
2021/04/14 02:18:04;;;;;;;0.30;0.30;;;;;;;18.91;46.19;94081.69;4994420;28;99685;-60
2021/04/14 02:20:30;;;;;;;0.20;0.20;;;;;;;18.94;46.14;94075.41;4993888;28;99664;-60
2021/04/14 02:22:56;;;;;;;0.28;0.28;;;;;;;18.93;46.23;94084.00;4994900;28;96647;-61
2021/04/14 20:29:28;;;;;;;4.93;2.30;;;;;;;17.72;43.16;94590.28;5034524;28;97457;-64
2021/04/14 20:31:53;;;;;;;2.40;2.20;;;;;;;17.87;42.82;94593.91;5033043;28;96914;-62
2021/04/14 20:34:19;;;;;;;2.28;2.08;;;;;;;18.07;42.13;94584.25;5032583;28;99566;-65
2021/04/14 20:36:45;;;;;;;3.55;2.35;;;;;;;18.26;42.13;94590.56;5031271;28;101512;-63
2021/04/14 20:39:11;;;;;;;3.40;2.60;;;;;;;18.41;41.89;94587.88;5033188;27;97003;-62
2021/04/14 20:41:36;;;;;;;3.65;2.40;;;;;;;18.55;41.25;94590.63;5032836;27;96905;-63
2021/04/14 20:44:02;;;;;;;3.88;2.40;;;;;;;18.63;41.09;94586.75;5032427;27;99337;-62
2021/04/14 20:46:28;;;;;;;4.90;3.05;;;;;;;18.66;41.23;94596.91;5032423;28;98270;-62
2021/04/14 20:48:53;;;;;;;3.50;2.75;;;;;;;18.81;40.93;94586.81;5032908;27;96612;-62
2021/04/14 20:51:19;;;;;;;3.72;2.55;;;;;;;18.87;40.61;94589.94;5032901;28;96984;-63
2021/04/14 20:53:48;;;;;;;4.32;3.50;;;;;;;18.96;40.82;94586.81;5032737;27;99464;-63
2021/04/14 20:56:13;;;;;;;3.75;3.08;;;;;;;18.91;40.59;94587.97;5030431;27;99812;-62
2021/04/14 20:58:39;;;;;;;5.28;3.70;;;;;;;18.94;40.55;94589.94;5032678;27;96722;-63
2021/04/14 21:01:05;;;;;;;4.55;3.95;;;;;;;18.92;40.54;94575.84;5032661;27;96953;-63
2021/04/14 21:03:30;;;;;;;4.40;3.38;;;;;;;18.98;40.56;94578.25;5030698;27;100199;-63
2021/04/14 21:05:57;;;;;;;4.63;4.13;;;;;;;19.03;40.34;94586.84;5031942;27;99247;-63
2021/04/14 21:08:22;;;;;;;5.90;4.38;;;;;;;19.05;40.44;94583.72;5032425;28;96624;-64
2021/04/14 21:10:48;;;;;;;4.78;4.03;;;;;;;19.00;40.46;94581.38;5032577;27;96934;-63
2021/04/14 21:13:13;;;;;;;5.78;4.28;;;;;;;18.99;40.37;94585.28;5030651;28;99098;-64
2021/04/14 21:15:40;;;;;;;5.03;4.30;;;;;;;19.01;40.47;94588.41;5031901;27;99549;-63
2021/04/14 21:18:05;;;;;;;6.43;4.10;;;;;;;19.03;40.58;94591.53;5032459;27;96960;-63
2021/04/14 21:20:31;;;;;;;7.35;4.43;;;;;;;19.08;40.47;94588.41;5032381;27;96929;-63
2021/04/14 21:22:57;;;;;;;6.28;4.25;;;;;;;19.02;40.85;94589.97;5022095;28;99572;-64
2021/04/14 21:25:22;;;;;;;5.85;4.03;;;;;;;19.07;41.09;94592.31;5011403;28;98461;-64
2021/04/14 21:27:48;;;;;;;5.45;4.05;;;;;;;19.14;41.17;94594.28;5011212;28;96854;-63
2021/04/14 21:30:15;;;;;;;7.15;4.20;;;;;;;19.15;41.23;94588.41;5012063;28;96826;-64
2021/04/14 21:32:41;;;;;;;4.05;3.33;;;;;;;19.20;41.53;94584.50;5011380;28;99519;-64
2021/04/14 21:35:07;;;;;;;4.50;3.45;;;;;;;19.17;41.74;94569.63;5011434;28;99088;-63
2021/04/14 21:37:32;;;;;;;5.93;3.45;;;;;;;19.19;41.99;94559.06;5011558;28;96722;-58
2021/04/14 21:41:43;;;;;;;4.90;4.50;;;;;;;11.08;38.82;94588.19;5034400;28;96591;-57
2021/04/14 21:44:08;;;;;;;5.55;5.05;;;;;;;6.68;47.81;94590.25;5032757;28;96903;-60
2021/04/14 21:46:34;;;;;;;5.95;5.35;;;;;;;5.63;51.24;94589.63;5031914;28;100219;-60
2021/04/14 21:49:01;;;;;;;6.55;5.30;;;;;;;4.38;54.44;94601.31;5032308;28;97716;-60
2021/04/14 21:51:27;;;;;;;7.28;5.57;;;;;;;3.81;55.78;94599.59;5032384;27;96646;-60
2021/04/14 21:53:53;;;;;;;13.73;8.10;;;;;;;3.11;58.10;94599.28;5032732;27;96920;-60
2021/04/14 21:56:18;;;;;;;10.63;6.97;;;;;;;2.85;58.97;94596.94;5032216;28;99187;-61
2021/04/14 21:58:44;;;;;;;9.27;6.47;;;;;;;2.75;59.81;94592.53;5031844;28;99482;-60
2021/04/14 22:01:09;;;;;;;8.13;6.30;;;;;;;2.54;60.44;94591.97;5032191;27;97277;-59
2021/04/14 22:03:35;;;;;;;8.20;5.65;;;;;;;2.53;60.71;94590.38;5032393;27;97072;-60
2021/04/14 22:06:00;;;;;;;7.50;6.25;;;;;;;2.37;61.38;94593.22;5031480;28;99488;-60
2021/04/14 22:08:26;;;;;;;8.73;5.85;;;;;;;2.22;61.65;94598.69;5031866;28;98777;-60
2021/04/14 22:10:52;;;;;;;8.35;6.65;;;;;;;2.24;61.92;94599.22;5032412;27;96745;-60
2021/04/14 22:13:17;;;;;;;7.57;5.70;;;;;;;2.27;61.63;94598.66;5032202;27;96936;-59
2021/04/14 22:15:44;;;;;;;9.15;5.97;;;;;;;2.28;61.94;94613.56;5031376;28;97547;-60
2021/04/14 22:18:10;;;;;;;10.60;6.57;;;;;;;2.28;62.26;94605.56;5031461;27;99196;-60
2021/04/14 22:20:36;;;;;;;7.20;5.60;;;;;;;2.32;62.48;94600.50;5031673;27;96661;-59
2021/04/14 22:23:02;;;;;;;9.23;6.60;;;;;;;2.34;62.79;94601.78;5032237;27;97179;-60
2021/04/14 22:25:28;;;;;;;8.93;6.20;;;;;;;2.38;62.59;94599.34;5031471;27;99792;-60
2021/04/14 22:27:54;;;;;;;9.50;6.53;;;;;;;2.46;63.24;94611.28;5031715;27;99623;-60
2021/04/14 22:30:23;;;;;;;9.07;6.38;;;;;;;2.56;63.45;94616.50;5030406;28;96656;-60
2021/04/14 22:32:50;;;;;;;8.60;7.07;;;;;;;2.50;63.31;94612.28;5032092;27;96874;-60
2021/04/14 22:35:16;;;;;;;10.77;6.88;;;;;;;2.36;63.30;94612.97;5031226;27;99292;-61
2021/04/14 22:37:42;;;;;;;11.35;7.05;;;;;;;2.26;63.10;94615.72;5031219;27;99592;-59
2021/04/14 22:40:08;;;;;;;8.65;6.07;;;;;;;2.06;63.08;94606.84;5031598;28;96675;-60
2021/04/14 22:42:33;;;;;;;8.90;5.63;;;;;;;2.14;63.49;94612.63;5031950;27;96907;-60
2021/04/14 22:44:59;;;;;;;5.93;5.13;;;;;;;2.07;63.17;94611.09;5031046;28;99432;-60
2021/04/14 22:47:24;;;;;;;6.10;5.43;;;;;;;2.03;62.99;94610.09;5031055;28;99548;-60
2021/04/14 22:49:50;;;;;;;6.78;5.00;;;;;;;2.00;63.14;94610.66;5028276;28;96803;-60
2021/04/14 22:52:15;;;;;;;7.43;5.60;;;;;;;2.08;63.30;94612.69;5022629;28;96856;-58
2021/04/14 22:54:41;;;;;;;7.10;5.53;;;;;;;2.03;63.77;94610.09;5017691;28;98031;-60
2021/04/14 22:57:06;;;;;;;6.30;5.03;;;;;;;1.99;63.23;94608.25;5017131;28;99073;-60
2021/04/14 22:59:32;;;;;;;6.70;5.15;;;;;;;2.10;63.26;94609.75;5016051;28;96793;-57
2021/04/14 23:01:57;;;;;;;9.70;5.82;;;;;;;2.22;63.41;94622.69;5017893;28;96890;-58
2021/04/14 23:04:23;;;;;;;6.57;4.70;;;;;;;2.26;62.82;94623.72;5017306;28;99044;-60
2021/04/14 23:06:48;;;;;;;6.25;4.38;;;;;;;2.27;62.88;94614.66;5017628;28;99469;-58
2021/04/14 23:09:14;;;;;;;6.65;5.05;;;;;;;2.26;63.14;94612.28;5017909;28;96694;-58
2021/04/14 23:11:40;;;;;;;7.60;5.03;;;;;;;2.18;63.14;94616.34;5018023;28;96874;-58
2021/04/14 23:14:05;;;;;;;7.63;5.72;;;;;;;2.26;62.65;94613.06;5017345;28;99474;-58
2021/04/14 23:16:31;;;;;;;6.30;5.30;;;;;;;2.22;62.66;94617.38;5015758;28;98982;-59
2021/04/14 23:18:56;;;;;;;7.07;5.38;;;;;;;2.21;63.11;94619.25;5017578;28;97327;-60
2021/04/14 23:21:22;;;;;;;7.03;5.18;;;;;;;2.19;62.82;94613.41;5017973;28;96901;-59
2021/04/14 23:23:48;;;;;;;4.45;4.05;;;;;;;2.27;62.21;94614.66;5017013;28;99307;-60
2021/04/14 23:26:13;;;;;;;5.78;4.57;;;;;;;2.22;62.18;94617.38;5017229;28;99216;-57
2021/04/14 23:28:39;;;;;;;5.05;4.50;;;;;;;2.25;62.13;94611.47;5017823;28;96602;-60
2021/04/14 23:31:04;;;;;;;5.60;4.32;;;;;;;2.31;62.11;94614.91;5017276;28;96862;-61
2021/04/14 23:33:30;;;;;;;4.88;4.18;;;;;;;2.51;61.65;94613.88;5016871;28;99419;-59
2021/04/14 23:35:55;;;;;;;4.70;3.97;;;;;;;2.40;61.90;94609.72;5016747;28;99313;-60
2021/04/14 23:38:21;;;;;;;5.50;4.15;;;;;;;2.35;61.36;94607.94;5017347;28;96703;-55
2021/04/14 23:40:47;;;;;;;4.13;3.80;;;;;;;2.40;61.39;94617.72;5016836;28;96856;-60
2021/04/14 23:43:14;;;;;;;4.47;4.07;;;;;;;2.47;61.42;94618.19;5016962;28;99281;-59
2021/04/14 23:45:39;;;;;;;4.93;4.03;;;;;;;2.39;61.44;94610.81;5016687;28;99228;-57
2021/04/14 23:48:05;;;;;;;4.55;3.75;;;;;;;2.37;61.01;94601.22;5016928;28;96835;-58
2021/04/14 23:50:40;;;;;;;27.30;14.95;;;;;;;3.69;66.10;94614.19;5017267;28;96853;-65
2021/04/14 23:53:05;;;;;;;8.10;6.57;;;;;;;7.34;62.29;94610.16;5016340;28;99421;-66
2021/04/14 23:55:31;;;;;;;5.78;5.18;;;;;;;8.82;57.83;94607.59;5017335;28;99057;-67
2021/04/14 23:58:01;;;;;;;8.55;4.88;;;;;;;9.90;54.59;94599.28;5017478;28;96605;-67
